TRA223 EHAM-LPPR
Flight info
| Callsign | TRA223 |
|---|---|
| Flight time | N/A |
| Altitude | 36000 |
| Route | WOODY N872 MEDIL DCT KOVIN/N0441F370 DCT NIDUV DCT KIHVI UN872 ERIGA UZ218 FUJTI DCT ATLEN DCT INSID T326 ASPOR |
| Aircraft | A21N/M-SDE2E3FGHIRWXY/LB1 |
Departure
| Time | 2026-05-05 12:15 |
|---|---|
| Airport | Amsterdam Airport Schiphol (EHAM) |
Arrival
| Time | N/A |
|---|---|
| Airport | Francisco de Sá Carneiro Airport (LPPR) |
| Time | Latitude | Longitude | Altitude | Speed | Heading |
|---|---|---|---|---|---|
| 2026-05-05 12:12 | 52.30234 | 4.73932 | 0 ft | 1 kts | 218° |
| 2026-05-05 12:12 | 52.30196 | 4.73868 | -1 ft | 11 kts | 241° |
| 2026-05-05 12:12 | 52.30201 | 4.73763 | 0 ft | 10 kts | 309° |
| 2026-05-05 12:12 | 52.30244 | 4.73738 | -3 ft | 0 kts | 4° |
| 2026-05-05 12:14 | 52.30245 | 4.73738 | -3 ft | 0 kts | 4° |
| 2026-05-05 12:14 | 52.30246 | 4.73738 | -3 ft | 6 kts | 4° |
| 2026-05-05 12:14 | 52.30521 | 4.73765 | -2 ft | 70 kts | 3° |
| 2026-05-05 12:15 | 52.31215 | 4.73827 | -1 ft | 131 kts | 3° |
| 2026-05-05 12:15 | 52.32320 | 4.73922 | 25 ft | 180 kts | 2° |
| 2026-05-05 12:15 | 52.33580 | 4.74056 | 532 ft | 182 kts | 3° |
| 2026-05-05 12:15 | 52.34790 | 4.74464 | 1261 ft | 173 kts | 27° |
| 2026-05-05 12:16 | 52.35854 | 4.75363 | 1901 ft | 178 kts | 27° |
| 2026-05-05 12:16 | 52.37030 | 4.76372 | 2281 ft | 203 kts | 27° |
| 2026-05-05 12:16 | 52.38327 | 4.77549 | 2764 ft | 222 kts | 33° |
| 2026-05-05 12:16 | 52.39521 | 4.79287 | 3347 ft | 239 kts | 49° |
| 2026-05-05 12:17 | 52.40659 | 4.81390 | 3960 ft | 254 kts | 47° |
| 2026-05-05 12:17 | 52.41894 | 4.83541 | 4728 ft | 263 kts | 45° |
| 2026-05-05 12:17 | 52.43340 | 4.85402 | 5504 ft | 266 kts | 25° |
| 2026-05-05 12:17 | 52.45118 | 4.86164 | 6330 ft | 267 kts | 2° |
| 2026-05-05 12:18 | 52.46984 | 4.86137 | 7152 ft | 269 kts | 356° |
| 2026-05-05 12:18 | 52.48861 | 4.86152 | 7981 ft | 271 kts | 7° |
| 2026-05-05 12:18 | 52.50667 | 4.87029 | 8800 ft | 272 kts | 28° |
| 2026-05-05 12:18 | 52.52183 | 4.88880 | 9612 ft | 273 kts | 42° |
| 2026-05-05 12:19 | 52.53483 | 4.91141 | 10450 ft | 273 kts | 53° |
| 2026-05-05 12:19 | 52.54392 | 4.93850 | 11262 ft | 272 kts | 72° |
| 2026-05-05 12:19 | 52.54618 | 4.96879 | 12075 ft | 269 kts | 97° |
| 2026-05-05 12:19 | 52.54009 | 4.99789 | 12691 ft | 275 kts | 125° |
| 2026-05-05 12:20 | 52.52591 | 5.01905 | 13199 ft | 282 kts | 155° |
| 2026-05-05 12:20 | 52.50699 | 5.02636 | 13704 ft | 289 kts | 183° |
| 2026-05-05 12:20 | 52.48683 | 5.02130 | 14224 ft | 298 kts | 195° |
| 2026-05-05 12:20 | 52.46682 | 5.01052 | 14737 ft | 308 kts | 201° |
| 2026-05-05 12:21 | 52.44675 | 4.99674 | 15249 ft | 317 kts | 204° |
| 2026-05-05 12:21 | 52.42628 | 4.98174 | 15760 ft | 326 kts | 204° |
| 2026-05-05 12:21 | 52.40527 | 4.96652 | 16269 ft | 335 kts | 204° |
| 2026-05-05 12:21 | 52.38355 | 4.95139 | 16776 ft | 343 kts | 202° |
| 2026-05-05 12:22 | 52.36134 | 4.93618 | 17266 ft | 350 kts | 210° |
| 2026-05-05 12:22 | 52.34031 | 4.91492 | 17538 ft | 362 kts | 207° |
| 2026-05-05 12:22 | 52.31696 | 4.89831 | 18006 ft | 369 kts | 200° |
| 2026-05-05 12:22 | 52.29251 | 4.88473 | 18512 ft | 375 kts | 198° |
| 2026-05-05 12:23 | 52.26742 | 4.87177 | 19015 ft | 380 kts | 198° |
| 2026-05-05 12:23 | 52.24205 | 4.85830 | 19527 ft | 385 kts | 199° |
| 2026-05-05 12:23 | 52.21663 | 4.84400 | 20013 ft | 389 kts | 200° |
| 2026-05-05 12:23 | 52.19104 | 4.82883 | 20523 ft | 393 kts | 200° |
| 2026-05-05 12:24 | 52.16532 | 4.81304 | 21026 ft | 397 kts | 201° |
| 2026-05-05 12:24 | 52.13946 | 4.79684 | 21528 ft | 400 kts | 201° |
| 2026-05-05 12:24 | 52.11340 | 4.78040 | 22027 ft | 403 kts | 201° |
| 2026-05-05 12:24 | 52.08720 | 4.76385 | 22525 ft | 405 kts | 201° |
| 2026-05-05 12:25 | 52.06090 | 4.74727 | 23035 ft | 406 kts | 201° |
| 2026-05-05 12:25 | 52.03447 | 4.73067 | 23521 ft | 407 kts | 201° |
| 2026-05-05 12:25 | 52.00800 | 4.71409 | 24027 ft | 408 kts | 201° |
| 2026-05-05 12:25 | 51.98152 | 4.69755 | 24527 ft | 408 kts | 201° |
| 2026-05-05 12:26 | 51.95503 | 4.68104 | 25024 ft | 408 kts | 201° |